Terminal Aerodrome Forecast
Issued by NWS

Home | Current Version | Previous Version | Text Only | Print | Product List | Glossary On
Versions: 1 2 3 4 5 6 7 8 9 10 11 12 13 14
000
FTUS44 KBMX 221916 AAA
TAFEET
TAF AMD
KEET 221916Z 2219/2318 14008KT P6SM SCT025 OVC060
     FM222300 14007KT 6SM -RA OVC050
     FM230400 15007KT 3SM -SHRA VCTS OVC020CB
     FM230900 23007KT 5SM -RA VCTS OVC008CB
     FM231200 28008KT P6SM VCSH OVC008=

USA.gov is the U.S. government's official web portal to all federal, state and local government web resources and services.